Time;durP1;ratioP1;P1;durP2;ratioP2;P2;SDS_P1;SDS_P2;PMS_P1;PMS_P2;Temp;Humidity;BMP_temperature;BMP_pressure;BME280_temperature;BME280_humidity;BME280_pressure;Samples;Min_cycle;Max_cycle;Signal;HPM_P1;HPM_P2
2021/03/22 00:00:05;;;;;;;1999.90;999.90;;;;;;;4.50;51.41;101260.09;15725624;28;20044;-64
2021/03/22 00:07:36;;;;;;;1999.90;999.90;;;;;;;4.42;51.77;101257.88;15740275;28;20055;-65
2021/03/22 00:15:10;;;;;;;1999.90;999.90;;;;;;;4.44;52.04;101267.56;15781226;28;20056;-64
2021/03/22 00:22:41;;;;;;;;;;;;;;;4.27;53.00;101256.81;15807661;28;20435;-63
2021/03/22 00:30:19;;;;;;;1999.90;999.90;;;;;;;4.07;53.77;101256.81;15809281;28;19931;-63
2021/03/22 00:37:51;;;;;;;1999.90;999.90;;;;;;;3.91;54.89;101257.91;15820428;28;20043;-61
2021/03/22 00:45:25;;;;;;;1999.90;999.90;;;;;;;4.02;53.50;101257.63;15850122;28;20056;-65
2021/03/22 00:52:57;;;;;;;1999.90;999.90;;;;;;;3.93;54.05;101256.53;15819705;28;20116;-62
2021/03/22 01:00:32;;;;;;;1999.90;999.90;;;;;;;3.87;54.30;101254.06;15818063;28;20115;-64
2021/03/22 01:08:04;;;;;;;1999.90;999.90;;;;;;;3.77;55.23;101252.13;15823715;28;20052;-62
2021/03/22 01:15:37;;;;;;;1999.90;999.90;;;;;;;3.67;55.82;101257.63;15808168;28;20036;-62
2021/03/22 01:23:08;;;;;;;1999.90;999.90;;;;;;;3.81;56.33;101249.63;15853038;28;20052;-64
2021/03/22 01:30:44;;;;;;;1999.90;999.90;;;;;;;3.80;56.77;101240.50;15842150;28;20479;-63
2021/03/22 01:38:16;;;;;;;1999.90;999.90;;;;;;;3.80;57.34;101236.94;15802742;28;20047;-63
2021/03/22 01:45:49;;;;;;;1999.90;999.90;;;;;;;3.75;58.41;101232.22;15818985;28;20435;-61
2021/03/22 01:53:20;;;;;;;1999.90;999.90;;;;;;;3.75;58.69;101233.06;15792283;28;20526;-64
2021/03/22 02:00:53;;;;;;;1999.90;999.90;;;;;;;3.73;60.28;101239.94;15803512;28;20040;-63
2021/03/22 02:08:28;;;;;;;1999.90;999.90;;;;;;;3.74;61.19;101222.28;15793282;28;20130;-63
2021/03/22 02:16:08;;;;;;;1999.90;999.90;;;;;;;3.82;61.84;101230.03;15789946;28;20471;-63
2021/03/22 02:24:12;;;;;;;1999.90;999.90;;;;;;;3.86;63.00;101228.38;15800166;28;20062;-64
2021/03/22 02:32:00;;;;;;;1999.90;999.90;;;;;;;3.93;63.74;101225.31;15807627;28;20115;-63
2021/03/22 02:39:37;;;;;;;1999.90;999.90;;;;;;;3.94;63.85;101229.75;15814237;28;20420;-62
2021/03/22 02:47:21;;;;;;;1999.90;999.90;;;;;;;3.92;64.08;101234.72;15834305;28;20032;-62
2021/03/22 02:54:56;;;;;;;1999.90;999.90;;;;;;;3.88;64.21;101230.88;15819842;28;20035;-63
2021/03/22 03:02:30;;;;;;;1999.90;999.90;;;;;;;3.69;64.97;101241.59;15846075;28;20069;-63
2021/03/22 03:10:05;;;;;;;1999.90;999.90;;;;;;;3.63;65.61;101239.94;15827571;28;20101;-63
2021/03/22 03:17:38;;;;;;;1999.90;999.90;;;;;;;3.53;66.37;101246.25;15842224;28;20051;-65
2021/03/22 03:25:12;;;;;;;1999.90;999.90;;;;;;;3.39;67.47;101257.00;15836710;28;20074;-61
2021/03/22 03:32:44;;;;;;;1999.90;999.90;;;;;;;3.28;68.10;101269.13;15797087;28;20044;-62
2021/03/22 03:40:20;;;;;;;1999.90;999.90;;;;;;;3.39;68.60;101264.44;15835506;28;20039;-64
2021/03/22 03:47:51;;;;;;;1999.90;999.90;;;;;;;3.36;68.94;101267.75;15866259;28;20074;-63
2021/03/22 03:55:26;;;;;;;1999.90;999.90;;;;;;;3.20;70.12;101269.63;15842308;28;20051;-63
2021/03/22 04:02:59;;;;;;;1999.90;999.90;;;;;;;3.20;70.54;101272.38;15829507;28;20058;-63
2021/03/22 04:10:32;;;;;;;1999.90;999.90;;;;;;;3.19;71.05;101273.50;15804519;28;20040;-62
2021/03/22 04:18:04;;;;;;;1999.90;999.90;;;;;;;3.13;71.72;101280.94;15815408;28;20044;-62
2021/03/22 04:25:36;;;;;;;1999.90;999.90;;;;;;;3.16;72.21;101287.81;15847738;28;20062;-62
2021/03/22 04:33:08;;;;;;;1999.90;999.90;;;;;;;3.21;72.53;101298.88;15828256;28;20341;-63
2021/03/22 04:40:40;;;;;;;1999.90;999.90;;;;;;;3.26;72.82;101303.59;15827526;28;20102;-63
2021/03/22 04:48:16;;;;;;;1999.90;999.90;;;;;;;3.21;73.02;101303.56;15840211;28;20040;-64
2021/03/22 04:55:48;;;;;;;1999.90;999.90;;;;;;;3.24;73.35;101312.13;15823320;28;20040;-64
2021/03/22 05:03:22;;;;;;;1999.90;999.90;;;;;;;3.29;73.04;101322.34;15797417;28;20032;-64
2021/03/22 05:10:58;;;;;;;1999.90;999.90;;;;;;;3.31;72.83;101334.75;15793475;28;20048;-62
2021/03/22 05:18:31;;;;;;;1999.90;999.90;;;;;;;3.31;72.96;101323.72;15860852;28;20036;-64
2021/03/22 05:26:05;;;;;;;1999.90;999.90;;;;;;;3.49;72.75;101330.69;15824617;28;20372;-65
2021/03/22 05:33:37;;;;;;;1999.90;999.90;;;;;;;4.03;70.94;101338.56;15782620;28;20047;-62
2021/03/22 05:41:17;;;;;;;1999.90;999.90;;;;;;;4.40;70.22;101352.13;15822208;28;20416;-64
2021/03/22 05:49:15;;;;;;;1999.90;999.90;;;;;;;4.14;70.55;101347.69;15826226;28;20062;-64
2021/03/22 05:56:56;;;;;;;1999.90;999.90;;;;;;;4.15;71.50;101357.63;15817743;28;20051;-63
2021/03/22 06:04:37;;;;;;;1999.90;999.90;;;;;;;4.26;71.17;101370.34;15845073;28;20557;-64
2021/03/22 06:12:32;;;;;;;1999.90;999.90;;;;;;;4.46;71.83;101373.09;15810740;28;20058;-63
2021/03/22 06:20:10;;;;;;;1999.90;999.90;;;;;;;4.44;71.55;101380.84;15815915;28;20047;-64
2021/03/22 06:27:42;;;;;;;1999.90;999.90;;;;;;;4.97;70.08;101403.50;15819036;28;20131;-63
2021/03/22 06:35:16;;;;;;;1999.90;999.90;;;;;;;5.82;68.36;101409.03;15805470;28;20034;-65
2021/03/22 06:43:05;;;;;;;1999.90;999.90;;;;;;;6.89;64.08;101411.94;15807443;28;20521;-64
2021/03/22 06:50:37;;;;;;;1999.90;999.90;;;;;;;7.16;62.47;101443.84;15822452;28;20518;-64
2021/03/22 06:58:27;;;;;;;1999.90;999.90;;;;;;;7.47;60.69;101436.88;15860847;28;20048;-65
2021/03/22 07:06:15;;;;;;;1999.90;999.90;;;;;;;7.74;61.11;101449.34;15837259;28;20467;-63
2021/03/22 07:13:56;;;;;;;1999.90;999.90;;;;;;;8.76;57.95;101456.28;15795784;28;20059;-64
2021/03/22 07:21:28;;;;;;;1999.90;999.90;;;;;;;10.15;54.26;101467.31;15800819;28;21161;-64
2021/03/22 07:29:21;;;;;;;1999.90;999.90;;;;;;;10.62;52.06;101475.19;15868182;28;20043;-64
2021/03/22 07:36:59;;;;;;;1999.90;999.90;;;;;;;11.19;50.28;101478.25;15868032;28;20519;-64
2021/03/22 07:44:46;;;;;;;1999.90;999.90;;;;;;;10.55;50.62;101471.19;15868500;28;20415;-65
2021/03/22 07:52:30;;;;;;;1999.90;999.90;;;;;;;9.88;51.65;101473.72;15850750;28;20067;-65
2021/03/22 08:00:12;;;;;;;1999.90;999.90;;;;;;;10.84;49.47;101479.97;15850461;28;20043;-63
2021/03/22 08:07:54;;;;;;;1999.90;999.90;;;;;;;10.78;49.66;101486.00;15868674;28;20131;-65
2021/03/22 08:15:34;;;;;;;1999.90;999.90;;;;;;;11.20;49.10;101496.66;15866814;28;20194;-65
2021/03/22 08:23:16;;;;;;;1999.90;999.90;;;;;;;10.60;49.34;101498.97;15867312;28;20043;-64
2021/03/22 08:31:02;;;;;;;1999.90;999.90;;;;;;;11.79;46.96;101514.13;15848481;28;20043;-65
2021/03/22 08:38:44;;;;;;;1999.90;999.90;;;;;;;11.79;46.66;101532.84;15786333;28;20077;-65
2021/03/22 08:46:27;;;;;;;1999.90;999.90;;;;;;;11.41;45.13;101524.91;15827501;28;20439;-63
2021/03/22 08:54:00;;;;;;;1999.90;999.90;;;;;;;12.64;45.23;101537.09;15864971;28;20051;-64
2021/03/22 09:01:35;;;;;;;1999.90;999.90;;;;;;;12.66;43.55;101540.41;15865479;28;20075;-64
2021/03/22 09:09:19;;;;;;;1999.90;999.90;;;;;;;13.37;41.45;101539.28;15865636;28;20040;-66
2021/03/22 09:16:54;;;;;;;1999.90;999.90;;;;;;;13.01;41.07;101544.03;15864312;28;20134;-64
2021/03/22 09:24:46;;;;;;;1999.90;999.90;;;;;;;16.19;36.14;101554.00;15798665;28;20063;-64
2021/03/22 09:32:45;;;;;;;1999.90;999.90;;;;;;;16.44;36.89;101552.81;15801491;28;20121;-64
2021/03/22 09:40:47;;;;;;;1999.90;999.90;;;;;;;16.81;34.94;101552.81;15799269;28;20040;-65
2021/03/22 09:48:24;;;;;;;1999.90;999.90;;;;;;;16.44;34.52;101544.38;15784663;28;20040;-65
2021/03/22 09:56:07;;;;;;;1999.90;999.90;;;;;;;15.40;34.99;101547.56;15782607;28;20132;-66
2021/03/22 10:04:16;;;;;;;1999.90;999.90;;;;;;;15.77;34.82;101552.19;15800738;28;20063;-65
2021/03/22 10:11:51;;;;;;;1999.90;999.90;;;;;;;17.85;31.01;101554.66;15799204;28;20044;-64
2021/03/22 10:19:26;;;;;;;1999.90;999.90;;;;;;;18.01;31.29;101569.59;15782182;28;20488;-65
2021/03/22 10:27:00;;;;;;;1999.90;999.90;;;;;;;18.03;29.54;101569.25;15795254;28;20048;-64
2021/03/22 10:34:40;;;;;;;1999.90;999.90;;;;;;;19.53;28.28;101560.25;15799184;28;20098;-65
2021/03/22 10:42:37;;;;;;;1999.90;999.90;;;;;;;18.73;28.24;101560.94;15798440;28;20518;-64
2021/03/22 10:50:20;;;;;;;1999.90;999.90;;;;;;;19.15;27.19;101560.25;15796533;28;20298;-65
2021/03/22 10:57:52;;;;;;;;;;;;;;;18.71;27.67;101575.44;15771198;28;20051;-65
2021/03/22 11:05:29;;;;;;;1999.90;999.90;;;;;;;19.12;27.39;101567.47;15792385;28;20294;-65
2021/03/22 11:13:01;;;;;;;1999.90;999.90;;;;;;;20.68;25.77;101575.28;15808860;28;20381;-65
2021/03/22 11:20:34;;;;;;;1999.90;999.90;;;;;;;18.51;26.70;101578.53;15808354;28;20121;-64
2021/03/22 11:28:08;;;;;;;1999.90;999.90;;;;;;;20.00;26.65;101567.63;15794940;28;20076;-65
2021/03/22 11:35:43;;;;;;;1999.90;999.90;;;;;;;18.88;27.99;101567.75;15845910;28;20043;-65
2021/03/22 11:43:24;;;;;;;1999.90;999.90;;;;;;;15.95;30.80;101574.53;15852165;28;20039;-65
2021/03/22 11:51:02;;;;;;;1999.90;999.90;;;;;;;17.92;27.86;101548.38;15869255;28;20538;-63
2021/03/22 11:58:38;;;;;;;1999.90;999.90;;;;;;;20.30;26.09;101544.25;15807280;28;20500;-65
2021/03/22 12:06:13;;;;;;;1999.90;999.90;;;;;;;17.52;28.59;101546.47;15776457;28;20052;-64
2021/03/22 12:13:47;;;;;;;1999.90;999.90;;;;;;;17.37;29.39;101538.78;15803600;28;20051;-65
2021/03/22 12:21:20;;;;;;;1999.90;999.90;;;;;;;19.16;25.26;101542.88;15804939;28;20109;-65
2021/03/22 12:28:55;;;;;;;1999.90;999.90;;;;;;;20.68;24.00;101535.59;15868221;28;20039;-65
2021/03/22 12:36:28;;;;;;;1999.90;999.90;;;;;;;21.77;22.26;101537.38;15790146;28;20052;-65
2021/03/22 12:44:02;;;;;;;1999.90;999.90;;;;;;;21.42;23.71;101539.84;15816637;28;20135;-65
2021/03/22 12:51:34;;;;;;;1999.90;999.90;;;;;;;23.61;20.86;101539.09;15819502;28;20138;-65
2021/03/22 12:59:14;;;;;;;1999.90;999.90;;;;;;;20.56;23.49;101532.16;15865903;28;20043;-65
2021/03/22 13:06:47;;;;;;;1999.90;999.90;;;;;;;19.29;26.48;101524.59;15787230;28;20051;-65
2021/03/22 13:14:19;;;;;;;1999.90;999.90;;;;;;;18.85;25.89;101537.34;15802196;28;20510;-65
2021/03/22 13:21:52;;;;;;;1999.90;999.90;;;;;;;18.49;27.07;101538.53;15799993;28;20032;-65
2021/03/22 13:29:24;;;;;;;1999.90;999.90;;;;;;;19.62;24.73;101520.41;15799725;28;20411;-65
2021/03/22 13:36:56;;;;;;;1999.90;999.90;;;;;;;18.81;27.00;101528.81;15801400;28;20051;-64
2021/03/22 13:44:27;;;;;;;1999.90;999.90;;;;;;;22.91;22.78;101526.16;15801273;28;20114;-65
2021/03/22 13:52:07;;;;;;;1999.90;999.90;;;;;;;19.02;26.61;101522.81;15800782;28;20097;-65
2021/03/22 13:59:38;;;;;;;1999.90;999.90;;;;;;;17.06;27.83;101523.38;15782973;28;20104;-65
2021/03/22 14:07:11;;;;;;;1999.90;999.90;;;;;;;15.47;30.34;101511.28;15783748;28;20040;-64
2021/03/22 14:14:43;;;;;;;1999.90;999.90;;;;;;;14.30;30.82;101507.59;15822742;28;20559;-65
2021/03/22 14:22:16;;;;;;;1999.90;999.90;;;;;;;14.63;31.07;101507.72;15861166;28;20039;-64
2021/03/22 14:29:47;;;;;;;1999.90;999.90;;;;;;;14.01;31.86;101505.59;15863548;28;20047;-64
2021/03/22 14:37:20;;;;;;;1999.90;999.90;;;;;;;13.11;33.67;101506.47;15870238;28;20036;-64
2021/03/22 14:44:53;;;;;;;1999.90;999.90;;;;;;;14.00;35.20;101506.75;15873944;28;20138;-66
2021/03/22 14:52:25;;;;;;;1999.90;999.90;;;;;;;14.14;32.57;101504.53;15874648;28;20039;-63
2021/03/22 14:59:57;;;;;;;1999.90;999.90;;;;;;;14.31;32.45;101510.06;15874263;28;20052;-63
2021/03/22 15:07:31;;;;;;;1999.90;999.90;;;;;;;13.26;32.37;101499.56;15797494;28;20047;-65
2021/03/22 15:15:03;;;;;;;;;;;;;;;13.29;33.21;101512.91;15811383;28;20055;-65
2021/03/22 15:22:36;;;;;;;1999.90;999.90;;;;;;;12.82;33.52;101493.16;15809711;28;20350;-64
2021/03/22 15:30:09;;;;;;;1999.90;999.90;;;;;;;12.80;33.93;101494.59;15808117;28;20496;-64
2021/03/22 15:37:42;;;;;;;1999.90;999.90;;;;;;;12.85;34.20;101500.06;15852537;28;20171;-64
2021/03/22 15:45:21;;;;;;;1999.90;999.90;;;;;;;12.65;33.62;101487.53;15816298;28;20180;-64
2021/03/22 15:52:54;;;;;;;1999.90;999.90;;;;;;;12.70;33.90;101485.38;15827278;28;20487;-63
2021/03/22 16:00:28;;;;;;;1999.90;999.90;;;;;;;12.53;35.33;101499.38;15816381;28;20467;-66
2021/03/22 16:08:02;;;;;;;1999.90;999.90;;;;;;;12.38;35.44;101511.84;15820031;28;20040;-65
2021/03/22 16:15:36;;;;;;;1999.90;999.90;;;;;;;12.02;35.38;101505.66;15840434;28;20039;-64
2021/03/22 16:23:11;;;;;;;1999.90;999.90;;;;;;;12.05;35.84;101507.81;15839881;28;20143;-64
2021/03/22 16:30:43;;;;;;;1999.90;999.90;;;;;;;11.90;35.80;101516.66;15842731;28;20052;-64
2021/03/22 16:38:18;;;;;;;1999.90;999.90;;;;;;;11.89;36.57;101524.22;15856555;28;20077;-63
2021/03/22 16:45:52;;;;;;;1999.90;999.90;;;;;;;11.97;35.79;101533.78;15809703;28;20143;-65
2021/03/22 16:53:25;;;;;;;1999.90;999.90;;;;;;;11.50;36.58;101534.19;15835822;28;20036;-65
2021/03/22 17:00:57;;;;;;;1999.90;999.90;;;;;;;11.35;37.33;101534.56;15807405;28;20385;-63
2021/03/22 17:08:30;;;;;;;1999.90;999.90;;;;;;;11.18;37.92;101532.47;15804718;28;20127;-63
2021/03/22 17:16:03;;;;;;;1999.90;999.90;;;;;;;11.21;37.82;101551.41;15829063;28;20052;-64
2021/03/22 17:23:36;;;;;;;1999.90;999.90;;;;;;;11.02;39.41;101547.94;15843052;28;20040;-63
2021/03/22 17:31:09;;;;;;;1999.90;999.90;;;;;;;10.75;39.07;101559.22;15828508;28;20495;-64
2021/03/22 17:38:43;;;;;;;1999.90;999.90;;;;;;;10.69;39.82;101567.69;15792273;28;20040;-63
2021/03/22 17:46:16;;;;;;;1999.90;999.90;;;;;;;10.49;40.49;101575.69;15829234;28;20400;-63
2021/03/22 17:53:48;;;;;;;;;;;;;;;10.24;41.61;101583.47;15811877;28;20040;-66
2021/03/22 18:01:20;;;;;;;1999.90;999.90;;;;;;;9.89;42.93;101600.81;15843290;28;19919;-65
2021/03/22 18:08:52;;;;;;;1999.90;999.90;;;;;;;9.59;43.19;101605.84;15832360;28;20040;-64
2021/03/22 18:16:24;;;;;;;1999.90;999.90;;;;;;;9.40;44.25;101618.97;15832759;28;20416;-65
2021/03/22 18:23:56;;;;;;;1999.90;999.90;;;;;;;9.22;44.60;101621.47;15812507;28;20851;-63
2021/03/22 18:31:28;;;;;;;1999.90;999.90;;;;;;;8.93;45.47;101623.56;15821867;28;20101;-63
2021/03/22 18:39:00;;;;;;;1999.90;999.90;;;;;;;8.73;45.81;101621.88;15827341;28;20504;-65
2021/03/22 18:46:31;;;;;;;1999.90;999.90;;;;;;;8.60;46.42;101630.97;15817268;28;20130;-65
2021/03/22 18:54:04;;;;;;;1999.90;999.90;;;;;;;8.46;46.82;101638.38;15832342;28;20048;-65
2021/03/22 19:01:38;;;;;;;1999.90;999.90;;;;;;;8.22;48.11;101643.91;15855423;28;20040;-65
2021/03/22 19:09:10;;;;;;;1999.90;999.90;;;;;;;8.03;49.00;101641.88;15807852;28;20118;-65
2021/03/22 19:16:42;;;;;;;1999.90;999.90;;;;;;;7.76;49.41;101644.38;15807399;28;20047;-65
2021/03/22 19:24:14;;;;;;;1999.90;999.90;;;;;;;7.63;49.96;101658.94;15843503;28;20044;-65
2021/03/22 19:31:46;;;;;;;1999.90;999.90;;;;;;;7.53;50.52;101654.28;15834600;28;20055;-65
2021/03/22 19:39:18;;;;;;;1999.90;999.90;;;;;;;7.34;51.05;101656.09;15816791;28;20396;-65
2021/03/22 19:46:50;;;;;;;1999.90;999.90;;;;;;;7.16;51.87;101663.16;15831901;28;20065;-66
2021/03/22 19:54:23;;;;;;;1999.90;999.90;;;;;;;7.00;51.82;101664.38;15792481;28;20052;-65
2021/03/22 20:01:54;;;;;;;1999.90;999.90;;;;;;;7.14;52.00;101671.75;15824204;28;20052;-65
2021/03/22 20:09:29;;;;;;;1999.90;999.90;;;;;;;7.23;52.41;101666.44;15827534;28;20053;-66
2021/03/22 20:17:00;;;;;;;1999.90;999.90;;;;;;;7.21;51.60;101663.13;15804061;28;20039;-62
2021/03/22 20:24:34;;;;;;;1999.90;999.90;;;;;;;7.13;52.27;101656.22;15804193;28;20142;-62
2021/03/22 20:32:06;;;;;;;1999.90;999.90;;;;;;;6.97;52.21;101659.38;15830694;28;20086;-60
2021/03/22 20:39:39;;;;;;;1999.90;999.90;;;;;;;6.80;53.50;101654.19;15823990;28;20142;-65
2021/03/22 20:47:10;;;;;;;1999.90;999.90;;;;;;;6.90;53.11;101654.16;15811071;28;20500;-66
2021/03/22 20:54:43;;;;;;;1999.90;999.90;;;;;;;7.14;53.34;101662.59;15813728;28;20481;-64
2021/03/22 21:02:15;;;;;;;1999.90;999.90;;;;;;;7.31;52.90;101671.41;15807242;28;20036;-64
2021/03/22 21:09:47;;;;;;;1999.90;999.90;;;;;;;7.49;53.17;101679.00;15830880;28;20040;-62
2021/03/22 21:17:19;;;;;;;1999.90;999.90;;;;;;;7.56;52.64;101672.31;15837822;28;20106;-62
2021/03/22 21:24:51;;;;;;;1999.90;999.90;;;;;;;7.75;53.26;101667.72;15801825;28;20166;-61
2021/03/22 21:32:23;;;;;;;1999.90;999.90;;;;;;;8.09;54.66;101660.16;15802155;28;20055;-65
2021/03/22 21:39:56;;;;;;;1999.90;999.90;;;;;;;8.32;55.10;101663.25;15862949;28;20073;-63
2021/03/22 21:47:27;;;;;;;1999.90;999.90;;;;;;;8.37;56.28;101671.59;15842405;28;20048;-63
2021/03/22 21:54:59;;;;;;;1999.90;999.90;;;;;;;8.49;57.76;101665.59;15806023;28;20048;-65
2021/03/22 22:02:31;;;;;;;1999.90;999.90;;;;;;;8.26;59.78;101650.53;15801080;28;20040;-64
2021/03/22 22:10:06;;;;;;;1999.90;999.90;;;;;;;8.80;59.64;101663.28;15797403;28;20044;-65
2021/03/22 22:17:38;;;;;;;1999.90;999.90;;;;;;;8.70;60.45;101660.63;15796082;28;20048;-64
2021/03/22 22:25:11;;;;;;;1999.90;999.90;;;;;;;8.77;61.14;101655.53;15857106;28;20047;-64
2021/03/22 22:32:43;;;;;;;1999.90;999.90;;;;;;;8.83;61.35;101668.25;15805000;28;20044;-64
2021/03/22 22:40:17;;;;;;;1999.90;999.90;;;;;;;8.85;61.56;101677.13;15779980;28;20079;-64
2021/03/22 22:47:49;;;;;;;1999.90;999.90;;;;;;;9.09;60.90;101683.50;15780250;28;20064;-64
2021/03/22 22:55:23;;;;;;;1999.90;999.90;;;;;;;8.92;61.26;101683.16;15808166;28;20403;-63
2021/03/22 23:02:56;;;;;;;1999.90;999.90;;;;;;;8.67;62.33;101689.88;15872715;28;20043;-63
2021/03/22 23:10:28;;;;;;;1999.90;999.90;;;;;;;8.60;63.13;101681.06;15873527;28;20470;-63
2021/03/22 23:18:00;;;;;;;1999.90;999.90;;;;;;;8.65;63.01;101686.56;15872250;28;20051;-64
2021/03/22 23:25:34;;;;;;;1999.90;999.90;;;;;;;8.60;63.43;101681.88;15792431;28;20123;-62
2021/03/22 23:33:10;;;;;;;1999.90;999.90;;;;;;;8.54;63.91;101680.28;15807885;28;20051;-62
2021/03/22 23:40:43;;;;;;;1999.90;999.90;;;;;;;8.51;63.78;101688.38;15809004;28;20396;-62
2021/03/22 23:48:15;;;;;;;1999.90;999.90;;;;;;;8.67;63.38;101692.66;15851953;28;20043;-62
2021/03/22 23:55:48;;;;;;;1999.90;999.90;;;;;;;8.51;64.37;101702.28;15806788;28;20048;-62
